| time (UTC) | temp F | wind direction | speed knots | gust knots | rain 1hr in | rain 24hr in | rain mn in | humidity % | barometer mb |
| 20260506024459 | 35 | 355 | 0.0 | 0.0 | 0.03 | 1.01 | 1.01 | 94 | 1014.6 |
| 20260506023958 | 34 | 355 | 0.0 | 0.0 | 0.03 | 1.00 | 1.00 | 94 | 1014.9 |
| 20260506023458 | 34 | 355 | 0.0 | 0.0 | 0.03 | 1.00 | 1.00 | 94 | 1014.8 |
| 20260506022959 | 34 | 355 | 0.0 | 0.0 | 0.04 | 1.00 | 1.00 | 94 | 1014.7 |
| 20260506022458 | 34 | 355 | 0.0 | 0.0 | 0.04 | 1.00 | 1.00 | 94 | 1014.6 |
| 20260506021459 | 34 | 355 | 0.0 | 0.0 | 0.03 | 0.99 | 0.99 | 94 | 1014.6 |
| 20260506020958 | 34 | 355 | 0.0 | 0.0 | 0.03 | 0.99 | 0.99 | 94 | 1014.5 |
| 20260506020459 | 34 | 355 | 0.0 | 0.0 | 0.02 | 0.98 | 0.98 | 94 | 1014.5 |
| 20260506015458 | 34 | 355 | 0.0 | 0.0 | 0.03 | 0.98 | 0.98 | 94 | 1014.4 |
| 20260506014959 | 34 | 355 | 0.0 | 0.0 | 0.03 | 0.98 | 0.98 | 94 | 1014.4 |
| 20260506014458 | 34 | 355 | 0.0 | 0.0 | 0.03 | 0.98 | 0.98 | 94 | 1014.3 |
| 20260506012959 | 34 | 355 | 0.0 | 0.0 | 0.01 | 0.96 | 0.96 | 94 | 1014.0 |
| 20260506011959 | 34 | 355 | 0.0 | 0.0 | 0.02 | 0.96 | 0.96 | 94 | 1013.9 |
| 20260506005958 | 34 | 355 | 0.0 | 0.0 | 0.02 | 0.98 | 0.96 | 94 | 1013.6 |
| 20260506004459 | 34 | 355 | 0.0 | 0.0 | 0.01 | 0.97 | 0.95 | 93 | 1013.5 |
| 20260506003958 | 34 | 355 | 0.0 | 0.0 | 0.01 | 0.97 | 0.95 | 94 | 1013.5 |
| 20260506003458 | 34 | 355 | 0.0 | 0.0 | 0.01 | 0.97 | 0.95 | 94 | 1013.4 |
| 20260506002959 | 34 | 355 | 0.0 | 0.0 | 0.01 | 0.97 | 0.95 | 94 | 1013.5 |
| 20260506002458 | 34 | 355 | 0.0 | 0.0 | 0.00 | 0.96 | 0.94 | 94 | 1013.5 |
| 20260506001959 | 34 | 355 | 0.0 | 0.9 | 0.01 | 0.96 | 0.94 | 94 | 1013.5 |
| 20260505235959 | 34 | 350 | 0.0 | 0.0 | 0.03 | 0.97 | 0.94 | 93 | 1013.0 |
| 20260505234959 | 34 | 0 | 0.0 | 0.0 | 0.04 | 0.98 | 0.94 | 93 | 1012.9 |
| 20260505232459 | 35 | 350 | 0.0 | 0.0 | 0.06 | 0.98 | 0.94 | 93 | 1012.8 |
| 20260505231959 | 35 | 0 | 0.9 | 2.6 | 0.05 | 0.97 | 0.93 | 93 | 1012.7 |
| 20260505231459 | 35 | 355 | 0.9 | 2.6 | 0.05 | 0.97 | 0.93 | 92 | 1012.7 |
| 20260505230458 | 36 | 0 | 1.7 | 2.6 | 0.05 | 0.96 | 0.92 | 93 | 1012.7 |
| 20260505224459 | 36 | 0 | 0.0 | 2.6 | 0.06 | 0.94 | 0.90 | 93 | 1012.1 |
| 20260505223959 | 36 | 0 | 0.0 | 2.6 | 0.06 | 0.93 | 0.89 | 93 | 1012.2 |
| 20260505223458 | 36 | 0 | 0.9 | 2.6 | 0.07 | 0.93 | 0.89 | 93 | 1012.2 |
| 20260505222959 | 36 | 0 | 0.0 | 0.0 | 0.06 | 0.92 | 0.88 | 93 | 1012.2 |
| 20260505222459 | 36 | 0 | 0.9 | 2.6 | 0.07 | 0.92 | 0.88 | 93 | 1012.2 |
| 20260505221459 | 36 | 358 | 1.7 | 5.2 | 0.07 | 0.92 | 0.88 | 93 | 1012.0 |
| 20260505220959 | 36 | 351 | 0.9 | 2.6 | 0.07 | 0.91 | 0.87 | 92 | 1011.9 |
| 20260505220459 | 36 | 355 | 0.9 | 5.2 | 0.07 | 0.91 | 0.87 | 93 | 1012.1 |
| 20260505215458 | 36 | 9 | 0.9 | 2.6 | 0.05 | 0.89 | 0.85 | 92 | 1012.1 |
| 20260505214959 | 36 | 9 | 1.7 | 6.1 | 0.05 | 0.88 | 0.84 | 92 | 1011.9 |
| 20260505214459 | 36 | 17 | 0.9 | 6.1 | 0.06 | 0.88 | 0.84 | 92 | 1011.9 |
| 20260505212959 | 37 | 19 | 0.0 | 4.3 | 0.05 | 0.86 | 0.82 | 92 | 1011.5 |
| 20260505212459 | 37 | 56 | 0.9 | 2.6 | 0.04 | 0.85 | 0.81 | 92 | 1011.5 |
| 20260505211458 | 37 | 26 | 0.9 | 2.6 | 0.05 | 0.85 | 0.81 | 92 | 1011.7 |
| 20260505210959 | 37 | 5 | 0.9 | 4.3 | 0.05 | 0.84 | 0.80 | 92 | 1011.8 |
| 20260505204458 | 37 | 84 | 0.9 | 6.1 | 0.05 | 0.82 | 0.78 | 91 | 1011.2 |
| 20260505203959 | 37 | 84 | 1.7 | 8.7 | 0.05 | 0.82 | 0.78 | 91 | 1011.2 |
| 20260505202459 | 37 | 32 | 0.0 | 2.6 | 0.05 | 0.81 | 0.77 | 91 | 1011.7 |
| 20260505201459 | 37 | 53 | 1.7 | 4.3 | 0.04 | 0.80 | 0.76 | 91 | 1011.6 |
| 20260505200959 | 37 | 0 | 0.9 | 5.2 | 0.04 | 0.79 | 0.75 | 90 | 1011.7 |
| 20260505195958 | 37 | 0 | 1.7 | 2.6 | 0.05 | 0.78 | 0.74 | 90 | 1011.8 |
| 20260505194959 | 37 | 39 | 1.7 | 4.3 | 0.05 | 0.77 | 0.73 | 91 | 1011.8 |
| 20260505194459 | 37 | 70 | 2.6 | 5.2 | 0.05 | 0.77 | 0.73 | 91 | 1011.7 |
| 20260505193959 | 37 | 0 | 0.9 | 4.3 | 0.05 | 0.77 | 0.73 | 91 | 1011.8 |
| 20260505193459 | 37 | 351 | 0.9 | 6.1 | 0.05 | 0.76 | 0.72 | 92 | 1011.8 |
| 20260505192458 | 37 | 1 | 1.7 | 5.2 | 0.05 | 0.76 | 0.72 | 92 | 1011.8 |
| 20260505191459 | 37 | 351 | 1.7 | 6.1 | 0.05 | 0.76 | 0.72 | 91 | 1011.7 |
| 20260505190959 | 37 | 4 | 1.7 | 6.1 | 0.04 | 0.75 | 0.71 | 91 | 1011.8 |
| 20260505190459 | 37 | 3 | 1.7 | 4.3 | 0.03 | 0.74 | 0.70 | 90 | 1011.8 |
| 20260505185459 | 39 | 1 | 1.7 | 5.2 | 0.03 | 0.73 | 0.69 | 89 | 1010.9 |
| 20260505183459 | 40 | 0 | 0.0 | 0.0 | 0.01 | 0.71 | 0.67 | 88 | 1010.9 |
| 20260505182459 | 39 | 0 | 0.0 | 0.0 | 0.01 | 0.71 | 0.67 | 88 | 1011.0 |
| 20260505180959 | 39 | 0 | 0.0 | 0.0 | 0.01 | 0.71 | 0.67 | 88 | 1011.1 |
| 20260505174459 | 39 | 0 | 0.0 | 0.0 | 0.02 | 0.70 | 0.66 | 89 | 1010.5 |
| 20260505174000 | 39 | 0 | 0.0 | 0.0 | 0.03 | 0.70 | 0.66 | 89 | 1010.5 |
| 20260505172459 | 39 | 6 | 0.0 | 0.0 | 0.05 | 0.70 | 0.66 | 90 | 1011.2 |
| 20260505171959 | 38 | 10 | 0.0 | 0.0 | 0.06 | 0.70 | 0.66 | 90 | 1011.1 |
| 20260505171459 | 38 | 10 | 0.0 | 0.0 | 0.06 | 0.70 | 0.66 | 90 | 1010.9 |
| 20260505170459 | 38 | 9 | 0.0 | 0.0 | 0.08 | 0.70 | 0.66 | 90 | 1010.9 |
| 20260505163959 | 37 | 9 | 0.0 | 0.0 | 0.09 | 0.67 | 0.63 | 91 | 1011.3 |
| 20260505162959 | 36 | 9 | 0.0 | 0.0 | 0.09 | 0.66 | 0.62 | 91 | 1011.3 |
| 20260505162459 | 36 | 9 | 0.0 | 0.0 | 0.09 | 0.65 | 0.61 | 91 | 1011.3 |
| 20260505161959 | 36 | 9 | 0.0 | 0.0 | 0.09 | 0.64 | 0.60 | 91 | 1011.4 |
| 20260505160500 | 36 | 9 | 0.0 | 0.0 | 0.10 | 0.62 | 0.58 | 92 | 1011.7 |
| 20260505152959 | 35 | 9 | 0.0 | 0.0 | 0.08 | 0.57 | 0.53 | 92 | 1011.6 |
| 20260505152459 | 35 | 9 | 0.0 | 0.0 | 0.07 | 0.56 | 0.52 | 92 | 1011.7 |
| 20260505151000 | 35 | 10 | 0.0 | 0.0 | 0.04 | 0.53 | 0.49 | 92 | 1011.6 |
| 20260505150459 | 35 | 10 | 0.0 | 0.0 | 0.04 | 0.52 | 0.48 | 92 | 1011.7 |
| 20260505140500 | 34 | 10 | 0.0 | 0.0 | 0.00 | 0.48 | 0.44 | 92 | 1011.9 |
| 20260505122000 | 37 | 16 | 0.0 | 0.0 | 0.02 | 0.38 | 0.34 | 91 | 1009.7 |
| 20260505121459 | 37 | 16 | 0.0 | 0.0 | 0.02 | 0.38 | 0.34 | 91 | 1009.8 |
| 20260505121000 | 37 | 16 | 0.0 | 0.0 | 0.01 | 0.37 | 0.33 | 91 | 1009.8 |
| 20260505120000 | 37 | 16 | 0.0 | 0.0 | 0.01 | 0.36 | 0.32 | 91 | 1009.0 |
| 20260505115500 | 37 | 17 | 0.9 | 2.6 | 0.01 | 0.36 | 0.32 | 91 | 1009.0 |
| 20260505115000 | 37 | 0 | 0.0 | 2.6 | 0.01 | 0.36 | 0.32 | 91 | 1008.9 |
| 20260505114459 | 37 | 0 | 0.0 | 2.6 | 0.01 | 0.36 | 0.32 | 91 | 1008.9 |
| 20260505114000 | 37 | 353 | 0.9 | 2.6 | 0.02 | 0.36 | 0.32 | 91 | 1008.9 |
| 20260505113500 | 37 | 356 | 1.7 | 4.3 | 0.02 | 0.36 | 0.32 | 91 | 1008.5 |
| 20260505113000 | 37 | 0 | 0.0 | 1.7 | 0.02 | 0.36 | 0.32 | 91 | 1008.4 |
| 20260505112459 | 37 | 0 | 0.9 | 4.3 | 0.03 | 0.36 | 0.32 | 91 | 1008.3 |
| 20260505112000 | 38 | 348 | 0.9 | 5.2 | 0.04 | 0.36 | 0.32 | 91 | 1008.3 |
| 20260505111459 | 38 | 0 | 1.7 | 5.2 | 0.04 | 0.36 | 0.32 | 90 | 1008.2 |
| 20260505111000 | 38 | 355 | 0.9 | 2.6 | 0.05 | 0.36 | 0.32 | 91 | 1008.1 |
| 20260505110500 | 38 | 355 | 0.0 | 4.3 | 0.05 | 0.36 | 0.32 | 91 | 1008.0 |
| 20260505095959 | 39 | 355 | 2.6 | 7.8 | 0.04 | 0.31 | 0.27 | 88 | 1006.4 |
| 20260505094959 | 40 | 3 | 5.2 | 11.3 | 0.04 | 0.30 | 0.26 | 88 | 1006.2 |
| 20260505094500 | 41 | 355 | 2.6 | 6.1 | 0.04 | 0.30 | 0.26 | 88 | 1006.0 |
| 20260505094000 | 41 | 5 | 2.6 | 5.2 | 0.05 | 0.30 | 0.26 | 89 | 1006.0 |
| 20260505093000 | 42 | 354 | 3.5 | 7.8 | 0.05 | 0.30 | 0.26 | 88 | 1006.0 |
| 20260505092000 | 43 | 357 | 3.5 | 8.7 | 0.03 | 0.28 | 0.24 | 89 | 1005.6 |
| 20260505091500 | 43 | 31 | 0.9 | 10.4 | 0.03 | 0.28 | 0.24 | 89 | 1005.5 |
| 20260505090500 | 44 | 5 | 0.9 | 5.2 | 0.03 | 0.28 | 0.24 | 89 | 1005.3 |
| 20260505085459 | 44 | 13 | 0.9 | 2.6 | 0.03 | 0.27 | 0.23 | 87 | 1005.0 |
| 20260505083500 | 44 | 13 | 0.0 | 2.6 | 0.03 | 0.25 | 0.21 | 87 | 1004.7 |
| 20260505081500 | 44 | 12 | 0.0 | 0.0 | 0.07 | 0.25 | 0.21 | 89 | 1004.6 |
| 20260505081000 | 44 | 12 | 0.0 | 0.0 | 0.09 | 0.25 | 0.21 | 89 | 1004.4 |
| 20260505080500 | 44 | 12 | 0.0 | 0.0 | 0.09 | 0.25 | 0.21 | 89 | 1004.4 |
| 20260505075459 | 44 | 12 | 0.0 | 0.0 | 0.10 | 0.24 | 0.20 | 89 | 1004.5 |
| 20260505074459 | 44 | 12 | 0.0 | 0.9 | 0.10 | 0.24 | 0.20 | 89 | 1004.5 |
| 20260505073001 | 45 | 13 | 0.0 | 0.0 | 0.09 | 0.21 | 0.17 | 90 | 1004.5 |
| 20260505072500 | 45 | 13 | 0.0 | 1.7 | 0.08 | 0.19 | 0.15 | 90 | 1004.5 |
| 20260505071500 | 45 | 13 | 0.9 | 2.6 | 0.09 | 0.18 | 0.14 | 89 | 1004.4 |
| 20260505065500 | 45 | 351 | 0.0 | 6.1 | 0.06 | 0.14 | 0.10 | 87 | 1003.3 |
| 20260505064000 | 46 | 2 | 2.6 | 8.7 | 0.05 | 0.13 | 0.09 | 85 | 1003.0 |
| 20260505062500 | 48 | 351 | 1.7 | 6.1 | 0.03 | 0.11 | 0.07 | 82 | 1002.3 |
| 20260505061000 | 50 | 89 | 0.0 | 0.0 | 0.01 | 0.05 | 0.01 | 83 | 1001.5 |
| 20260505054000 | 50 | 89 | 0.0 | 0.0 | 0.00 | 0.04 | 0.04 | 80 | 1000.7 |
| 20260505053000 | 50 | 89 | 0.0 | 0.0 | 0.00 | 0.04 | 0.04 | 80 | 1000.4 |
| 20260505052500 | 50 | 89 | 0.0 | 0.0 | 0.00 | 0.04 | 0.04 | 80 | 1000.4 |
| 20260505052000 | 49 | 89 | 0.9 | 2.6 | 0.00 | 0.04 | 0.04 | 81 | 1000.3 |
| 20260505051500 | 49 | 78 | 0.0 | 0.0 | 0.00 | 0.04 | 0.04 | 82 | 1000.4 |
| 20260505051000 | 50 | 78 | 0.0 | 0.0 | 0.00 | 0.04 | 0.04 | 82 | 1000.4 |
| 20260505041500 | 50 | 78 | 0.0 | 0.0 | 0.00 | 0.04 | 0.04 | 82 | 1000.6 |
| 20260505031501 | 51 | 0 | 0.0 | 0.0 | 0.00 | 0.04 | 0.04 | 84 | 1001.1 |
| 20260505030501 | 52 | 0 | 0.0 | 0.0 | 0.00 | 0.04 | 0.04 | 85 | 1001.0 |
| 20260505030000 | 52 | 0 | 0.0 | 0.0 | 0.00 | 0.04 | 0.04 | 84 | 1002.3 |